createdAt,value
2019-02-18T00:00:08.513Z,0.00
2019-02-18T00:01:08.588Z,0.00
2019-02-18T00:02:10.650Z,0.00
2019-02-18T00:03:09.205Z,0.00
2019-02-18T00:04:09.512Z,0.00
2019-02-18T00:05:10.399Z,0.00
2019-02-18T00:06:10.807Z,0.00
2019-02-18T00:07:14.509Z,0.00
2019-02-18T00:08:10.990Z,0.00
2019-02-18T00:09:11.302Z,0.00
2019-02-18T00:10:11.661Z,0.00
2019-02-18T00:11:12.258Z,0.00
2019-02-18T00:12:12.126Z,0.00
2019-02-18T00:13:12.610Z,0.00
2019-02-18T00:14:12.982Z,0.00
2019-02-18T00:15:14.153Z,0.00
2019-02-18T00:16:13.755Z,0.00
2019-02-18T00:17:13.745Z,0.00
2019-02-18T00:18:14.126Z,0.00
2019-02-18T00:19:14.433Z,0.00
2019-02-18T00:20:15.624Z,0.00
2019-02-18T00:21:15.112Z,0.00
2019-02-18T00:22:15.210Z,0.00
2019-02-18T00:23:15.540Z,0.00
2019-02-18T00:24:15.958Z,0.00
2019-02-18T00:25:16.576Z,0.00
2019-02-18T00:26:15.921Z,0.00
2019-02-18T00:27:16.249Z,0.00
2019-02-18T00:28:16.637Z,0.00
2019-02-18T00:29:16.948Z,0.00
2019-02-18T00:30:17.632Z,0.00
2019-02-18T00:31:17.388Z,0.00
2019-02-18T00:32:17.951Z,0.00
2019-02-18T00:33:17.950Z,0.00
2019-02-18T00:34:18.321Z,0.00
2019-02-18T00:35:18.598Z,0.00
2019-02-18T00:37:24.353Z,0.00
2019-02-18T00:38:19.275Z,0.00
2019-02-18T00:39:19.593Z,0.00
2019-02-18T00:40:20.369Z,0.00
2019-02-18T00:41:21.076Z,0.00
2019-02-18T00:42:21.291Z,0.00
2019-02-18T00:43:21.615Z,0.00
2019-02-18T00:44:20.954Z,0.00
2019-02-18T00:46:22.338Z,0.00
2019-02-18T00:47:22.539Z,0.00
2019-02-18T00:48:22.671Z,0.00
2019-02-18T00:49:22.674Z,0.00
2019-02-18T00:50:22.755Z,0.00
2019-02-18T00:51:22.710Z,0.00
2019-02-18T00:52:22.893Z,0.00
2019-02-18T00:53:22.824Z,0.00
2019-02-18T00:54:23.061Z,0.00
2019-02-18T00:55:23.311Z,0.00
2019-02-18T00:56:23.429Z,0.00
2019-02-18T00:57:23.270Z,0.00
2019-02-18T00:58:23.604Z,0.00
2019-02-18T00:59:24.170Z,0.00
2019-02-18T01:00:24.480Z,0.00
2019-02-18T01:01:24.327Z,0.00
2019-02-18T01:02:25.114Z,0.00
2019-02-18T01:03:24.858Z,0.00
2019-02-18T01:04:25.185Z,0.00
2019-02-18T01:05:25.773Z,0.00
2019-02-18T01:06:25.625Z,0.00
2019-02-18T01:07:34.471Z,0.00
2019-02-18T01:08:25.946Z,0.00
2019-02-18T01:09:27.375Z,0.00
2019-02-18T01:10:26.990Z,0.00
2019-02-18T01:11:26.907Z,0.00
2019-02-18T01:12:27.277Z,0.00
2019-02-18T01:13:27.695Z,0.00
2019-02-18T01:14:28.481Z,0.00
2019-02-18T01:15:28.345Z,0.00
2019-02-18T01:16:28.637Z,0.00
2019-02-18T01:17:28.943Z,0.00
2019-02-18T01:18:28.973Z,0.00
2019-02-18T01:19:29.576Z,0.00
2019-02-18T01:20:29.364Z,0.00
2019-02-18T01:21:29.674Z,0.00
2019-02-18T01:22:30.250Z,0.00
2019-02-18T01:23:30.673Z,0.00
2019-02-18T01:24:30.556Z,0.00
2019-02-18T01:25:31.710Z,0.00
2019-02-18T01:26:31.211Z,0.00
2019-02-18T01:27:31.826Z,0.00
2019-02-18T01:28:32.098Z,0.00
2019-02-18T01:29:31.880Z,0.00
2019-02-18T01:30:32.346Z,0.00
2019-02-18T01:31:32.727Z,0.00
2019-02-18T01:32:33.394Z,0.00
2019-02-18T01:33:33.249Z,0.00
2019-02-18T01:34:33.581Z,0.00
2019-02-18T01:35:33.860Z,0.00
2019-02-18T01:36:34.184Z,0.00
2019-02-18T01:37:44.840Z,0.00
2019-02-18T01:38:34.869Z,0.00
2019-02-18T01:39:34.983Z,0.00
2019-02-18T01:40:35.189Z,0.00
2019-02-18T01:41:35.700Z,0.00
2019-02-18T01:42:35.605Z,0.00
2019-02-18T01:43:35.964Z,0.00
2019-02-18T01:44:36.538Z,0.00
2019-02-18T01:45:36.664Z,0.00
2019-02-18T01:46:37.054Z,0.00
2019-02-18T01:47:37.267Z,0.00
2019-02-18T01:48:39.442Z,0.00
2019-02-18T01:49:37.286Z,0.00
2019-02-18T01:50:37.745Z,0.00
2019-02-18T01:51:38.097Z,0.00
2019-02-18T01:52:38.525Z,0.00
2019-02-18T01:53:38.531Z,0.00
2019-02-18T01:54:38.422Z,0.00
2019-02-18T01:55:38.853Z,0.00
2019-02-18T01:56:39.863Z,0.00
2019-02-18T01:57:39.240Z,0.00
2019-02-18T01:58:40.071Z,0.00
2019-02-18T01:59:40.103Z,0.00
2019-02-18T02:00:43.102Z,0.00
2019-02-18T02:01:40.489Z,0.00
2019-02-18T02:02:40.949Z,0.00
2019-02-18T02:03:41.336Z,0.00
2019-02-18T02:04:41.890Z,0.00
2019-02-18T02:05:42.413Z,0.00
2019-02-18T02:06:42.713Z,0.00
2019-02-18T02:07:42.682Z,0.00
2019-02-18T02:08:43.096Z,0.00
2019-02-18T02:59:57.432Z,0.00
2019-02-18T03:00:57.238Z,0.00
2019-02-18T03:01:57.579Z,0.00
2019-02-18T03:02:57.917Z,0.00
2019-02-18T03:03:58.323Z,0.00
2019-02-18T03:04:58.729Z,0.00
2019-02-18T03:05:59.047Z,0.00
2019-02-18T03:06:59.492Z,0.00
2019-02-18T03:07:59.990Z,0.00
2019-02-18T03:09:00.285Z,0.00
2019-02-18T03:10:01.658Z,0.00
2019-02-18T03:11:01.669Z,0.00
2019-02-18T03:12:01.986Z,0.00
2019-02-18T03:13:02.602Z,0.00
2019-02-18T03:14:02.506Z,0.00
2019-02-18T03:15:02.815Z,0.00
2019-02-18T03:16:02.640Z,0.00
2019-02-18T03:17:04.072Z,0.00
2019-02-18T03:18:04.268Z,0.00
2019-02-18T03:19:03.627Z,0.00
2019-02-18T03:20:03.919Z,0.00
2019-02-18T03:21:04.901Z,0.00
2019-02-18T03:22:04.224Z,0.00
2019-02-18T03:23:04.462Z,0.00
2019-02-18T03:24:05.235Z,0.00
2019-02-18T03:25:05.868Z,0.00
2019-02-18T03:26:06.364Z,0.00
2019-02-18T03:27:06.790Z,0.00
2019-02-18T03:28:07.005Z,0.00
2019-02-18T03:29:06.360Z,0.00
2019-02-18T03:30:06.557Z,0.00
2019-02-18T03:31:06.691Z,0.00
2019-02-18T03:32:07.353Z,0.00
2019-02-18T03:33:07.759Z,0.00
2019-02-18T03:34:08.166Z,0.00
2019-02-18T03:35:07.991Z,0.00
2019-02-18T03:36:08.386Z,0.00
2019-02-18T03:37:08.904Z,0.00
2019-02-18T03:38:08.777Z,0.00
2019-02-18T03:39:09.228Z,0.00
2019-02-18T03:40:09.593Z,0.00
2019-02-18T03:41:09.904Z,0.00
2019-02-18T03:42:10.383Z,0.00
2019-02-18T03:43:10.760Z,0.00
2019-02-18T03:44:11.588Z,0.00
2019-02-18T03:45:11.511Z,0.00
2019-02-18T03:46:11.881Z,0.00
2019-02-18T03:47:12.303Z,0.00
2019-02-18T03:48:12.579Z,0.00
2019-02-18T03:49:12.995Z,0.00
2019-02-18T03:50:13.212Z,0.00
2019-02-18T03:51:13.656Z,0.00
2019-02-18T03:52:13.563Z,0.00
2019-02-18T03:53:13.875Z,0.00
2019-02-18T03:54:14.205Z,0.00
2019-02-18T03:55:15.442Z,0.00
2019-02-18T03:56:14.715Z,0.00
2019-02-18T03:57:15.383Z,0.00
2019-02-18T03:58:15.942Z,0.00
2019-02-18T03:59:15.246Z,0.00
2019-02-18T04:00:16.367Z,0.00
2019-02-18T04:01:15.731Z,0.00
2019-02-18T04:02:16.848Z,0.00
2019-02-18T04:03:16.201Z,0.00
2019-02-18T04:04:16.526Z,0.00
2019-02-18T04:05:17.537Z,0.00
2019-02-18T04:06:16.931Z,0.00
2019-02-18T04:07:17.343Z,0.00
2019-02-18T04:08:17.761Z,0.00
2019-02-18T04:09:18.337Z,0.00
2019-02-18T04:10:18.173Z,0.00
2019-02-18T04:11:18.603Z,0.00
2019-02-18T04:12:19.008Z,0.00
2019-02-18T04:13:19.335Z,0.00
2019-02-18T04:14:19.760Z,0.00
2019-02-18T04:15:21.229Z,0.00
2019-02-18T04:16:21.650Z,0.00
2019-02-18T04:17:21.749Z,0.00
2019-02-18T04:18:21.959Z,0.00
2019-02-18T04:19:22.081Z,0.00
2019-02-18T04:20:22.080Z,0.00
2019-02-18T04:21:22.140Z,0.00
2019-02-18T04:22:22.512Z,0.00
2019-02-18T04:23:22.641Z,0.00
2019-02-18T04:24:22.509Z,0.00
2019-02-18T04:25:22.777Z,0.00
2019-02-18T04:26:23.015Z,0.00
2019-02-18T04:27:23.099Z,0.00
2019-02-18T04:28:23.263Z,0.00
2019-02-18T04:29:23.585Z,0.00
2019-02-18T04:30:24.016Z,0.00
2019-02-18T04:31:24.516Z,0.00
2019-02-18T04:32:24.191Z,0.00
2019-02-18T04:33:23.990Z,0.00
2019-02-18T04:34:24.426Z,0.00
2019-02-18T04:35:24.827Z,0.00
2019-02-18T04:36:25.218Z,0.00
2019-02-18T04:37:25.664Z,0.00
2019-02-18T04:40:26.400Z,0.00
2019-02-18T04:41:26.803Z,0.00
2019-02-18T04:42:27.204Z,0.00
2019-02-18T04:43:27.661Z,0.00
2019-02-18T04:44:28.095Z,0.00
2019-02-18T04:45:28.462Z,0.00
2019-02-18T04:46:28.760Z,0.00
2019-02-18T04:47:29.185Z,0.00
2019-02-18T04:48:29.506Z,0.00
2019-02-18T04:49:29.805Z,0.00
2019-02-18T04:50:33.337Z,0.00
2019-02-18T04:51:31.190Z,0.00
2019-02-18T04:52:31.314Z,0.00
2019-02-18T04:53:31.203Z,0.00
2019-02-18T04:54:31.831Z,0.00
2019-02-18T04:55:31.740Z,0.00
2019-02-18T04:56:32.147Z,0.00
2019-02-18T04:57:32.893Z,0.00
2019-02-18T04:58:33.084Z,0.00
2019-02-18T04:59:33.007Z,0.00
2019-02-18T05:00:33.272Z,0.00
2019-02-18T05:01:33.695Z,0.00
2019-02-18T05:02:34.854Z,0.00
2019-02-18T05:03:34.753Z,0.00
2019-02-18T05:04:34.861Z,0.00
2019-02-18T05:05:34.754Z,0.00
2019-02-18T05:06:36.118Z,0.00
2019-02-18T05:07:36.597Z,0.00
2019-02-18T05:08:36.534Z,0.00
2019-02-18T05:09:36.642Z,0.00
2019-02-18T05:10:36.949Z,0.00
2019-02-18T05:11:37.375Z,0.00
2019-02-18T05:12:37.495Z,0.00
2019-02-18T05:13:37.651Z,0.00
2019-02-18T05:14:37.794Z,0.00
2019-02-18T05:15:40.189Z,0.00
2019-02-18T05:16:37.838Z,0.00
2019-02-18T05:17:38.367Z,0.00
2019-02-18T05:18:37.992Z,0.00
2019-02-18T05:19:38.109Z,0.00
2019-02-18T05:20:38.350Z,0.00
2019-02-18T05:21:38.493Z,0.00
2019-02-18T05:23:38.444Z,0.00
2019-02-18T05:24:39.501Z,0.00
2019-02-18T05:25:39.232Z,0.00
2019-02-18T05:26:39.417Z,0.00
2019-02-18T05:27:39.816Z,0.00
2019-02-18T05:28:39.687Z,0.00
2019-02-18T05:29:39.988Z,0.00
2019-02-18T05:30:40.870Z,0.00
2019-02-18T05:31:40.783Z,0.00
2019-02-18T05:32:41.912Z,0.00
2019-02-18T05:33:41.341Z,0.00
2019-02-18T05:34:41.819Z,0.00
2019-02-18T05:35:42.201Z,0.00
2019-02-18T05:36:42.960Z,0.00
2019-02-18T05:37:42.894Z,0.00
2019-02-18T05:38:43.387Z,0.00
2019-02-18T05:39:43.823Z,0.00
2019-02-18T05:40:44.418Z,0.00
2019-02-18T05:41:44.833Z,0.00
2019-02-18T05:42:44.868Z,0.00
2019-02-18T05:43:44.806Z,0.00
2019-02-18T05:44:45.228Z,0.00
2019-02-18T05:45:45.780Z,0.00
2019-02-18T05:46:45.864Z,0.00
2019-02-18T05:47:45.772Z,0.00
2019-02-18T05:48:46.724Z,0.00
2019-02-18T05:49:46.582Z,0.00
2019-02-18T05:50:47.075Z,0.00
2019-02-18T05:51:47.412Z,0.00
2019-02-18T05:52:48.023Z,0.00
2019-02-18T05:53:48.291Z,1.00
2019-02-18T05:54:48.853Z,1.00
2019-02-18T05:55:48.304Z,0.00
2019-02-18T05:56:48.769Z,1.00
2019-02-18T05:57:49.246Z,2.00
2019-02-18T05:58:49.877Z,1.00
2019-02-18T05:59:52.125Z,1.00
2019-02-18T06:00:49.519Z,3.00
2019-02-18T06:01:50.292Z,2.00
2019-02-18T06:02:51.347Z,3.00
2019-02-18T06:04:51.565Z,4.00
2019-02-18T06:05:51.655Z,5.00
2019-02-18T06:06:51.446Z,7.00
2019-02-18T06:07:52.226Z,7.00
2019-02-18T06:08:52.293Z,10.00
2019-02-18T06:09:52.443Z,12.00
2019-02-18T06:10:52.555Z,14.00
2019-02-18T06:11:52.678Z,17.00
2019-02-18T06:12:52.683Z,20.00
2019-02-18T06:13:52.993Z,24.00
2019-02-18T06:14:53.236Z,29.00
2019-02-18T06:15:53.554Z,34.00
2019-02-18T06:16:53.341Z,40.00
2019-02-18T06:17:53.732Z,48.00
2019-02-18T06:18:54.168Z,56.00
2019-02-18T06:19:54.924Z,67.00
2019-02-18T06:20:55.084Z,78.00
2019-02-18T06:21:55.077Z,91.00
2019-02-18T06:22:55.408Z,105.00
2019-02-18T06:23:55.968Z,119.00
2019-02-18T06:24:55.794Z,136.00
2019-02-18T06:25:56.244Z,155.00
2019-02-18T06:26:56.620Z,174.00
2019-02-18T06:27:57.071Z,195.00
2019-02-18T06:28:57.434Z,217.00
2019-02-18T06:29:57.947Z,241.00
2019-02-18T06:30:57.981Z,266.00
2019-02-18T06:31:57.998Z,292.00
2019-02-18T06:32:57.922Z,318.00
2019-02-18T06:33:58.231Z,347.00
2019-02-18T06:34:58.667Z,377.00
2019-02-18T06:35:59.191Z,408.00
2019-02-18T06:36:58.920Z,439.00
2019-02-18T06:37:58.780Z,473.00
2019-02-18T06:38:59.668Z,506.00
2019-02-18T06:39:59.516Z,541.00
2019-02-18T06:40:59.778Z,575.00
2019-02-18T06:42:00.506Z,613.00
2019-02-18T06:43:03.599Z,650.00
2019-02-18T06:44:00.697Z,688.00
2019-02-18T06:45:00.909Z,728.00
2019-02-18T06:46:01.745Z,769.00
2019-02-18T06:47:01.843Z,810.00
2019-02-18T06:48:02.362Z,852.00
2019-02-18T06:49:02.683Z,893.00
2019-02-18T06:50:02.537Z,935.00
2019-02-18T06:51:02.178Z,977.00
2019-02-18T06:52:02.805Z,1021.00
2019-02-18T06:53:03.047Z,1061.00
2019-02-18T06:54:03.139Z,1102.00
2019-02-18T06:55:03.538Z,1152.00
2019-02-18T06:56:06.409Z,1203.00
2019-02-18T06:57:04.191Z,1237.00
2019-02-18T06:58:03.374Z,1282.00
2019-02-18T06:59:05.101Z,1322.00
2019-02-18T07:00:05.110Z,1362.00
2019-02-18T07:01:04.711Z,1408.00
2019-02-18T07:02:05.333Z,1457.00
2019-02-18T07:03:05.919Z,1502.00
2019-02-18T07:04:05.943Z,1547.00
2019-02-18T07:05:06.163Z,1595.00
2019-02-18T07:06:06.072Z,1641.00
2019-02-18T07:07:06.596Z,1688.00
2019-02-18T07:08:07.005Z,1736.00
2019-02-18T07:09:06.917Z,1788.00
2019-02-18T07:10:07.014Z,1830.00
2019-02-18T07:11:07.638Z,1874.00
2019-02-18T07:12:07.444Z,1920.00
2019-02-18T07:13:07.757Z,1966.00
2019-02-18T07:14:07.724Z,2014.00
2019-02-18T07:15:08.175Z,2060.00
2019-02-18T07:16:08.443Z,2108.00
2019-02-18T07:17:10.410Z,2155.00
2019-02-18T07:18:08.574Z,2200.00
2019-02-18T07:19:09.217Z,2245.00
2019-02-18T07:20:09.647Z,2289.00
2019-02-18T07:21:09.521Z,2333.00
2019-02-18T07:22:09.862Z,2376.00
2019-02-18T07:23:10.378Z,2421.00
2019-02-18T07:24:10.248Z,2468.00
2019-02-18T07:25:10.489Z,2515.00
2019-02-18T07:26:11.627Z,2556.00
2019-02-18T07:27:11.631Z,2599.00
2019-02-18T07:28:11.504Z,2647.00
2019-02-18T07:29:12.154Z,2693.00
2019-02-18T07:30:12.267Z,2739.00
2019-02-18T07:31:12.438Z,2788.00
2019-02-18T07:32:12.752Z,2841.00
2019-02-18T07:33:13.221Z,2894.00
2019-02-18T07:34:13.237Z,2946.00
2019-02-18T07:35:14.145Z,3004.00
2019-02-18T07:36:14.354Z,3061.00
2019-02-18T07:37:14.227Z,3122.00
2019-02-18T07:38:14.499Z,3184.00
2019-02-18T07:39:15.393Z,3244.00
2019-02-18T07:40:16.115Z,3308.00
2019-02-18T07:41:15.460Z,3362.00
2019-02-18T07:42:16.129Z,3421.00
2019-02-18T07:43:15.989Z,3479.00
2019-02-18T07:44:16.755Z,3535.00
2019-02-18T07:45:16.619Z,3602.00
2019-02-18T07:46:17.174Z,3660.00
2019-02-18T07:47:17.389Z,3711.00
2019-02-18T07:48:17.810Z,3773.00
2019-02-18T07:49:18.023Z,3826.00
2019-02-18T07:50:20.992Z,3877.00
2019-02-18T07:51:18.546Z,3935.00
2019-02-18T07:52:18.422Z,3993.00
2019-02-18T07:53:18.726Z,4060.00
2019-02-18T07:54:19.239Z,4114.00
2019-02-18T07:55:19.240Z,4170.00
2019-02-18T07:56:19.709Z,4227.00
2019-02-18T07:57:20.847Z,4285.00
2019-02-18T07:58:21.319Z,4346.00
2019-02-18T07:59:21.774Z,4391.00
2019-02-18T08:00:21.475Z,4459.00
2019-02-18T08:01:21.480Z,4525.00
2019-02-18T08:02:22.093Z,4583.00
2019-02-18T08:03:22.323Z,4633.00
2019-02-18T08:04:22.482Z,4693.00
2019-02-18T08:05:22.687Z,4733.00
2019-02-18T08:06:22.705Z,4759.00
2019-02-18T08:07:22.669Z,4777.00
2019-02-18T08:08:22.692Z,4768.00
2019-02-18T08:09:23.248Z,4817.00
2019-02-18T08:10:22.988Z,4842.00
2019-02-18T08:11:23.079Z,4870.00
2019-02-18T08:12:23.496Z,4904.00
2019-02-18T08:13:23.419Z,4937.00
2019-02-18T08:14:23.784Z,4955.00
2019-02-18T08:15:24.340Z,4986.00
2019-02-18T08:16:24.193Z,5028.00
2019-02-18T08:17:24.539Z,5056.00
2019-02-18T08:18:24.935Z,5087.00
2019-02-18T08:19:25.349Z,5111.00
2019-02-18T08:20:25.799Z,5141.00
2019-02-18T08:21:25.763Z,5176.00
2019-02-18T08:22:26.092Z,5244.00
2019-02-18T08:23:26.500Z,5323.00
2019-02-18T08:24:26.823Z,5423.00
2019-02-18T08:25:27.461Z,5582.00
2019-02-18T08:26:27.886Z,5934.00
2019-02-18T08:27:28.510Z,11141.00
2019-02-18T08:29:28.097Z,65536.00
2019-02-18T08:30:28.008Z,65536.00
2019-02-18T08:31:28.380Z,65536.00
2019-02-18T08:32:28.645Z,65536.00
2019-02-18T08:33:29.027Z,65536.00
2019-02-18T08:34:29.435Z,65536.00
2019-02-18T08:35:29.892Z,65536.00
2019-02-18T08:36:30.295Z,65536.00
2019-02-18T08:37:31.036Z,65536.00
2019-02-18T08:38:31.237Z,65536.00
2019-02-18T08:39:31.871Z,15634.00
2019-02-18T08:40:31.905Z,6488.00
2019-02-18T08:41:31.669Z,6034.00
2019-02-18T08:42:31.534Z,5963.00
2019-02-18T08:43:33.688Z,5982.00
2019-02-18T08:44:32.211Z,6035.00
2019-02-18T08:45:32.626Z,6104.00
2019-02-18T08:47:32.838Z,6525.00
2019-02-18T08:48:32.947Z,8215.00
2019-02-18T08:49:33.110Z,65536.00
2019-02-18T08:50:33.470Z,65536.00
2019-02-18T08:51:33.372Z,65536.00
2019-02-18T08:52:34.062Z,65536.00
2019-02-18T08:53:33.954Z,65536.00
2019-02-18T08:54:34.251Z,65536.00
2019-02-18T08:55:34.745Z,65536.00
2019-02-18T08:56:35.248Z,65536.00
2019-02-18T08:57:36.007Z,65536.00
2019-02-18T08:58:36.180Z,65536.00
2019-02-18T08:59:36.773Z,65536.00
2019-02-18T09:00:36.623Z,65536.00
2019-02-18T09:01:37.027Z,65536.00
2019-02-18T09:02:37.338Z,65536.00
2019-02-18T09:03:37.516Z,65536.00
2019-02-18T09:04:37.656Z,65536.00
2019-02-18T09:05:37.886Z,65536.00
2019-02-18T09:06:37.772Z,65536.00
2019-02-18T09:07:38.035Z,65536.00
2019-02-18T09:08:39.016Z,65536.00
2019-02-18T09:09:38.580Z,65536.00
2019-02-18T09:10:38.472Z,65536.00
2019-02-18T09:11:38.888Z,65536.00
2019-02-18T09:12:39.556Z,65536.00
2019-02-18T09:13:39.441Z,65536.00
2019-02-18T09:14:40.187Z,65536.00
2019-02-18T09:15:40.505Z,65536.00
2019-02-18T09:16:40.529Z,65536.00
2019-02-18T09:17:40.484Z,65536.00
2019-02-18T09:18:41.070Z,65536.00
2019-02-18T09:19:41.191Z,65536.00
2019-02-18T09:20:41.207Z,65536.00
2019-02-18T09:21:41.522Z,65536.00
2019-02-18T09:22:42.016Z,65536.00
2019-02-18T09:23:41.987Z,65536.00
2019-02-18T09:24:42.191Z,65536.00
2019-02-18T09:25:43.544Z,65536.00
2019-02-18T09:26:42.754Z,65536.00
2019-02-18T09:27:43.005Z,65536.00
2019-02-18T09:28:43.450Z,65536.00
2019-02-18T09:29:43.817Z,65536.00
2019-02-18T09:30:44.492Z,65536.00
2019-02-18T09:31:44.237Z,65536.00
2019-02-18T09:32:44.585Z,65536.00
2019-02-18T09:33:45.020Z,65536.00
2019-02-18T09:34:45.941Z,65536.00
2019-02-18T09:35:45.748Z,65536.00
2019-02-18T09:36:46.167Z,65536.00
2019-02-18T09:37:46.566Z,65536.00
2019-02-18T09:38:47.445Z,65536.00
2019-02-18T09:39:47.484Z,65536.00
2019-02-18T09:41:47.556Z,65536.00
2019-02-18T09:42:48.104Z,65536.00
2019-02-18T09:43:48.269Z,65536.00
2019-02-18T09:44:48.791Z,65536.00
2019-02-18T09:45:48.144Z,65536.00
2019-02-18T09:46:48.546Z,65536.00
2019-02-18T09:47:49.511Z,65536.00
2019-02-18T09:48:49.824Z,65536.00
2019-02-18T09:49:49.829Z,65536.00
2019-02-18T09:50:51.372Z,65536.00
2019-02-18T09:51:51.155Z,65536.00
2019-02-18T09:52:51.489Z,65536.00
2019-02-18T09:53:51.636Z,65536.00
2019-02-18T09:54:51.808Z,65536.00
2019-02-18T09:55:52.018Z,65536.00
2019-02-18T09:56:52.138Z,65536.00
2019-02-18T09:57:52.505Z,65536.00
2019-02-18T09:58:52.637Z,14939.00
2019-02-18T09:59:52.757Z,14504.00
2019-02-18T10:00:52.882Z,13145.00
2019-02-18T10:01:53.010Z,13137.00
2019-02-18T10:02:52.994Z,14255.00
2019-02-18T10:03:53.114Z,12038.00
2019-02-18T10:04:53.291Z,8622.00
2019-02-18T10:05:53.267Z,9742.00
2019-02-18T10:06:54.943Z,14908.00
2019-02-18T10:07:54.144Z,65536.00
2019-02-18T10:08:54.436Z,65536.00
2019-02-18T10:09:54.830Z,14131.00
2019-02-18T10:10:56.379Z,11784.00
2019-02-18T10:11:55.820Z,10892.00
2019-02-18T10:12:55.812Z,65536.00
2019-02-18T10:13:56.227Z,65536.00
2019-02-18T10:14:57.175Z,65536.00
2019-02-18T10:15:57.712Z,65536.00
2019-02-18T10:16:57.590Z,65536.00
2019-02-18T10:17:57.444Z,65536.00
2019-02-18T10:18:58.110Z,65536.00
2019-02-18T10:19:57.969Z,65536.00
2019-02-18T10:20:58.285Z,65536.00
2019-02-18T10:21:58.596Z,65536.00
2019-02-18T10:22:58.909Z,65536.00
2019-02-18T10:23:59.679Z,65536.00
2019-02-18T10:24:59.586Z,65536.00
2019-02-18T10:25:59.951Z,65536.00
2019-02-18T10:27:00.449Z,65536.00
2019-02-18T10:28:01.861Z,14262.00
2019-02-18T10:29:01.973Z,11857.00
2019-02-18T10:31:02.389Z,65536.00
2019-02-18T10:32:02.403Z,14059.00
2019-02-18T10:33:02.806Z,65536.00
2019-02-18T10:34:02.814Z,65536.00
2019-02-18T10:35:03.326Z,65536.00
2019-02-18T10:36:04.159Z,65536.00
2019-02-18T10:37:03.511Z,65536.00
2019-02-18T10:38:03.981Z,65536.00
2019-02-18T10:39:05.103Z,65536.00
2019-02-18T10:40:05.108Z,65536.00
2019-02-18T10:41:07.191Z,65536.00
2019-02-18T10:42:06.054Z,65536.00
2019-02-18T10:44:06.257Z,65536.00
2019-02-18T10:45:06.574Z,65536.00
2019-02-18T10:46:06.342Z,11882.00
2019-02-18T10:47:07.312Z,9819.00
2019-02-18T10:48:07.761Z,13666.00
2019-02-18T10:49:18.956Z,65536.00
2019-02-18T10:50:08.144Z,65536.00
2019-02-18T10:51:08.043Z,65536.00
2019-02-18T10:52:08.236Z,65536.00
2019-02-18T10:53:08.441Z,65536.00
2019-02-18T10:54:08.204Z,11484.00
2019-02-18T10:55:08.540Z,8152.00
2019-02-18T10:56:08.978Z,12690.00
2019-02-18T10:57:09.403Z,65536.00
2019-02-18T10:58:09.800Z,65536.00
2019-02-18T10:59:10.209Z,65536.00
2019-02-18T11:00:10.640Z,9552.00
2019-02-18T11:01:11.034Z,8168.00
2019-02-18T11:02:11.484Z,65536.00
2019-02-18T11:03:12.080Z,65536.00
2019-02-18T11:04:11.857Z,65536.00
2019-02-18T11:05:12.191Z,65536.00
2019-02-18T11:06:12.504Z,65536.00
2019-02-18T11:07:13.174Z,65536.00
2019-02-18T11:08:13.375Z,65536.00
2019-02-18T11:09:13.166Z,65536.00
2019-02-18T11:10:14.106Z,65536.00
2019-02-18T11:11:16.912Z,65536.00
2019-02-18T11:12:14.396Z,65536.00
2019-02-18T11:13:15.362Z,65536.00
2019-02-18T11:14:15.260Z,65536.00
2019-02-18T11:15:16.726Z,65536.00
2019-02-18T11:16:16.052Z,65536.00
2019-02-18T11:17:16.476Z,65536.00
2019-02-18T11:18:17.035Z,65536.00
2019-02-18T11:19:17.740Z,65536.00
2019-02-18T11:20:17.336Z,65536.00
2019-02-18T11:21:17.226Z,65536.00
2019-02-18T11:22:17.520Z,65536.00
2019-02-18T11:23:17.844Z,65536.00
2019-02-18T11:24:20.691Z,65536.00
2019-02-18T11:25:18.666Z,65536.00
2019-02-18T11:26:18.994Z,65536.00
2019-02-18T11:27:19.271Z,65536.00
2019-02-18T11:28:19.863Z,65536.00
2019-02-18T11:29:19.969Z,65536.00
2019-02-18T11:30:20.385Z,65536.00
2019-02-18T11:31:21.308Z,65536.00
2019-02-18T11:32:21.480Z,65536.00
2019-02-18T11:33:21.843Z,65536.00
2019-02-18T11:34:22.358Z,65536.00
2019-02-18T11:35:21.950Z,65536.00
2019-02-18T11:36:22.074Z,65536.00
2019-02-18T11:37:22.273Z,65536.00
2019-02-18T11:38:22.443Z,10308.00
2019-02-18T11:39:22.513Z,65536.00
2019-02-18T11:40:22.394Z,65536.00
2019-02-18T11:41:27.443Z,65536.00
2019-02-18T11:42:23.017Z,65536.00
2019-02-18T11:43:23.040Z,65536.00
2019-02-18T11:44:23.323Z,65536.00
2019-02-18T11:45:23.212Z,65536.00
2019-02-18T11:46:23.618Z,65536.00
2019-02-18T11:47:23.965Z,65536.00
2019-02-18T11:48:24.609Z,65536.00
2019-02-18T11:49:24.472Z,65536.00
2019-02-18T11:50:25.429Z,65536.00
2019-02-18T11:51:25.212Z,65536.00
2019-02-18T11:52:25.863Z,65536.00
2019-02-18T11:53:25.838Z,65536.00
2019-02-18T11:54:26.239Z,65536.00
2019-02-18T11:55:26.622Z,65536.00
2019-02-18T11:56:27.314Z,65536.00
2019-02-18T11:57:31.690Z,65536.00
2019-02-18T11:58:27.718Z,65536.00
2019-02-18T11:59:27.755Z,10412.00
2019-02-18T12:00:27.603Z,10672.00
2019-02-18T12:01:28.552Z,11041.00
2019-02-18T12:02:28.442Z,10224.00
2019-02-18T12:03:28.861Z,8817.00
2019-02-18T12:04:29.160Z,8831.00
2019-02-18T12:05:29.479Z,8781.00
2019-02-18T12:06:30.142Z,8357.00
2019-02-18T12:07:30.118Z,8286.00
2019-02-18T12:08:30.586Z,8751.00
2019-02-18T12:09:30.566Z,8891.00
2019-02-18T12:10:30.934Z,8610.00
2019-02-18T12:11:37.833Z,8485.00
2019-02-18T12:12:31.732Z,8530.00
2019-02-18T12:13:35.509Z,8816.00
2019-02-18T12:14:32.669Z,9109.00
2019-02-18T12:15:33.273Z,9197.00
2019-02-18T12:16:33.331Z,9029.00
2019-02-18T12:17:33.257Z,9196.00
2019-02-18T12:18:34.012Z,9444.00
2019-02-18T12:19:34.443Z,8853.00
2019-02-18T12:20:35.053Z,9101.00
2019-02-18T12:21:34.651Z,65536.00
2019-02-18T12:22:34.526Z,65536.00
2019-02-18T12:23:35.379Z,65536.00
2019-02-18T12:24:36.209Z,65536.00
2019-02-18T12:25:36.519Z,10565.00
2019-02-18T12:26:36.542Z,10470.00
2019-02-18T12:27:36.738Z,10175.00
2019-02-18T12:28:36.536Z,9557.00
2019-02-18T12:29:37.060Z,9623.00
2019-02-18T12:30:36.956Z,65536.00
2019-02-18T12:31:37.530Z,65536.00
2019-02-18T12:32:37.378Z,65536.00
2019-02-18T12:33:37.645Z,65536.00
2019-02-18T12:34:38.031Z,65536.00
2019-02-18T12:35:38.527Z,65536.00
2019-02-18T12:36:38.940Z,65536.00
2019-02-18T12:37:39.074Z,65536.00
2019-02-18T12:38:41.077Z,65536.00
2019-02-18T12:39:39.431Z,65536.00
2019-02-18T12:40:40.198Z,65536.00
2019-02-18T12:41:48.246Z,65536.00
2019-02-18T12:42:42.456Z,65536.00
2019-02-18T12:43:41.315Z,65536.00
2019-02-18T12:44:41.120Z,65536.00
2019-02-18T12:45:41.544Z,65536.00
2019-02-18T12:46:42.483Z,65536.00
2019-02-18T12:47:42.797Z,65536.00
2019-02-18T12:48:43.214Z,65536.00
2019-02-18T12:49:43.828Z,65536.00
2019-02-18T12:50:43.741Z,65536.00
2019-02-18T12:51:43.954Z,65536.00
2019-02-18T12:52:43.810Z,65536.00
2019-02-18T12:53:46.147Z,65536.00
2019-02-18T12:54:44.391Z,65536.00
2019-02-18T12:55:44.996Z,65536.00
2019-02-18T12:56:45.050Z,65536.00
2019-02-18T12:57:45.287Z,65536.00
2019-02-18T12:58:54.251Z,65536.00
2019-02-18T12:59:45.582Z,65536.00
2019-02-18T13:00:46.013Z,65536.00
2019-02-18T13:01:45.944Z,65536.00
2019-02-18T13:02:46.387Z,65536.00
2019-02-18T13:03:46.742Z,65536.00
2019-02-18T13:04:47.424Z,65536.00
2019-02-18T13:05:47.832Z,65536.00
2019-02-18T13:06:47.862Z,65536.00
2019-02-18T13:07:47.669Z,65536.00
2019-02-18T13:08:48.015Z,65536.00
2019-02-18T13:09:48.342Z,9768.00
2019-02-18T13:11:58.524Z,65536.00
2019-02-18T13:12:49.311Z,65536.00
2019-02-18T13:13:49.827Z,9771.00
2019-02-18T13:14:49.739Z,9757.00
2019-02-18T13:15:50.866Z,9829.00
2019-02-18T13:16:51.282Z,9854.00
2019-02-18T13:17:51.495Z,9833.00
2019-02-18T13:18:51.607Z,9539.00
2019-02-18T13:19:51.402Z,8908.00
2019-02-18T13:20:51.831Z,8854.00
2019-02-18T13:21:52.505Z,9216.00
2019-02-18T13:22:52.347Z,9068.00
2019-02-18T13:23:52.629Z,8681.00
2019-02-18T13:24:53.030Z,8866.00
2019-02-18T13:25:53.515Z,9350.00
2019-02-18T13:26:53.349Z,9504.00
2019-02-18T13:27:53.685Z,9211.00
2019-02-18T13:28:54.036Z,8873.00
2019-02-18T13:29:54.745Z,8763.00
2019-02-18T13:30:54.682Z,8695.00
2019-02-18T13:31:55.077Z,9049.00
2019-02-18T13:32:55.082Z,9495.00
2019-02-18T13:33:55.529Z,9352.00